Time;durP1;ratioP1;P1;durP2;ratioP2;P2;SDS_P1;SDS_P2;PMS_P1;PMS_P2;Temp;Humidity;BMP_temperature;BMP_pressure;BME280_temperature;BME280_humidity;BME280_pressure;Samples;Min_cycle;Max_cycle;Signal;HPM_P1;HPM_P2
2020/12/26 00:02:20;;;;;;;33.58;21.17;;;0.50;99.90;;;;;;5030983;28;20021;-68
2020/12/26 00:04:47;;;;;;;36.55;19.25;;;0.50;99.90;;;;;;5030032;28;20010;-68
2020/12/26 00:07:12;;;;;;;36.58;20.88;;;0.40;99.90;;;;;;5031502;28;20430;-68
2020/12/26 00:09:38;;;;;;;38.60;20.95;;;0.50;99.90;;;;;;5031357;28;20022;-68
2020/12/26 00:12:03;;;;;;;42.85;21.85;;;0.50;99.90;;;;;;5031465;28;20052;-68
2020/12/26 00:14:29;;;;;;;37.15;21.13;;;0.50;99.90;;;;;;5030735;28;20079;-67
2020/12/26 00:16:56;;;;;;;35.08;19.85;;;0.40;99.90;;;;;;5031128;28;20029;-68
2020/12/26 00:19:22;;;;;;;40.67;20.25;;;0.40;99.90;;;;;;5030409;28;20356;-68
2020/12/26 00:21:48;;;;;;;37.22;20.70;;;0.40;99.90;;;;;;5030137;28;20033;-67
2020/12/26 00:24:14;;;;;;;37.72;22.10;;;0.40;99.90;;;;;;5030757;28;20021;-68
2020/12/26 00:26:39;;;;;;;36.13;20.40;;;0.50;99.90;;;;;;5030297;28;20029;-69
2020/12/26 00:29:05;;;;;;;36.25;20.58;;;0.40;99.90;;;;;;5031869;28;20030;-68
2020/12/26 00:31:31;;;;;;;36.05;20.85;;;0.50;99.90;;;;;;5031600;28;20024;-68
2020/12/26 00:33:56;;;;;;;37.72;21.58;;;0.30;99.90;;;;;;5030690;28;20025;-69
2020/12/26 00:36:22;;;;;;;40.63;21.20;;;0.40;99.90;;;;;;5031153;28;20026;-68
2020/12/26 00:38:48;;;;;;;41.28;21.35;;;0.40;99.90;;;;;;5031226;28;20079;-68
2020/12/26 00:41:15;;;;;;;37.33;19.80;;;0.40;99.90;;;;;;5031240;28;20035;-68
2020/12/26 00:43:41;;;;;;;41.47;20.95;;;0.30;99.90;;;;;;5030382;28;20052;-68
2020/12/26 00:46:07;;;;;;;36.95;20.45;;;0.40;99.90;;;;;;5031165;28;20032;-68
2020/12/26 00:48:33;;;;;;;36.67;20.42;;;0.40;99.90;;;;;;5030896;28;20037;-68
2020/12/26 00:50:58;;;;;;;34.45;19.67;;;0.40;99.90;;;;;;5030815;28;20084;-68
2020/12/26 00:53:24;;;;;;;37.63;20.30;;;0.40;99.90;;;;;;5030462;28;20030;-68
2020/12/26 00:55:50;;;;;;;35.08;20.88;;;0.40;99.90;;;;;;5031021;28;20472;-68
2020/12/26 00:58:15;;;;;;;37.35;20.15;;;0.40;99.90;;;;;;5032421;28;20482;-69
2020/12/26 01:00:41;;;;;;;36.50;19.80;;;0.40;99.90;;;;;;5034890;28;20060;-68
2020/12/26 01:03:07;;;;;;;38.40;20.45;;;0.40;99.90;;;;;;5033845;28;20021;-68
2020/12/26 01:05:32;;;;;;;34.47;20.95;;;0.40;99.90;;;;;;5034542;28;20049;-68
2020/12/26 01:07:58;;;;;;;35.05;21.05;;;0.40;99.90;;;;;;5034791;28;20449;-68
2020/12/26 01:10:24;;;;;;;34.03;19.80;;;0.40;99.90;;;;;;5034779;28;20096;-68
2020/12/26 01:12:49;;;;;;;32.30;19.50;;;0.40;99.90;;;;;;5034354;28;20472;-68
2020/12/26 01:15:16;;;;;;;33.17;19.17;;;0.30;99.90;;;;;;5034884;28;20025;-69
2020/12/26 01:17:45;;;;;;;37.50;19.27;;;0.30;99.90;;;;;;5033088;28;20480;-68
2020/12/26 01:20:10;;;;;;;31.58;19.25;;;0.30;99.90;;;;;;5034635;28;20033;-68
2020/12/26 01:22:37;;;;;;;33.22;19.70;;;0.20;99.90;;;;;;5034558;28;20021;-69
2020/12/26 01:25:06;;;;;;;36.67;19.38;;;0.40;99.90;;;;;;5034824;28;20391;-68
2020/12/26 01:27:33;;;;;;;33.33;19.13;;;0.40;99.90;;;;;;5034639;28;20025;-68
2020/12/26 01:29:59;;;;;;;33.33;20.20;;;0.40;99.90;;;;;;5033065;28;20029;-67
2020/12/26 01:32:27;;;;;;;35.90;19.77;;;0.50;99.90;;;;;;5033714;28;20031;-68
2020/12/26 01:34:57;;;;;;;35.22;19.15;;;0.50;99.90;;;;;;5033641;28;20277;-68
2020/12/26 01:37:23;;;;;;;35.88;20.23;;;0.50;99.90;;;;;;5034929;28;20411;-68
2020/12/26 01:39:48;;;;;;;32.17;18.63;;;0.50;99.90;;;;;;5034393;28;20029;-69
2020/12/26 01:42:14;;;;;;;35.13;20.58;;;0.60;99.90;;;;;;5034492;28;20026;-68
2020/12/26 01:44:40;;;;;;;38.47;22.17;;;0.50;99.90;;;;;;5033972;28;20029;-68
2020/12/26 01:47:07;;;;;;;34.58;20.63;;;0.60;99.90;;;;;;5035222;28;20029;-68
2020/12/26 01:49:33;;;;;;;35.55;19.40;;;0.60;99.90;;;;;;5036378;28;20113;-68
2020/12/26 01:52:00;;;;;;;38.05;21.17;;;0.60;99.90;;;;;;5037516;28;20042;-68
2020/12/26 01:54:27;;;;;;;31.45;19.33;;;0.60;99.90;;;;;;5038183;28;20026;-68
2020/12/26 01:56:53;;;;;;;34.97;19.23;;;0.60;99.90;;;;;;5054182;28;20052;-69
2020/12/26 01:59:18;;;;;;;32.95;20.20;;;0.70;99.90;;;;;;5055023;28;20025;-68
2020/12/26 02:01:44;;;;;;;33.15;20.42;;;0.70;99.90;;;;;;5054259;28;20081;-69
2020/12/26 02:04:11;;;;;;;36.85;18.63;;;0.70;99.90;;;;;;5052592;28;20025;-68
2020/12/26 02:06:40;;;;;;;33.42;19.60;;;0.60;99.90;;;;;;5035488;28;20037;-68
2020/12/26 02:09:06;;;;;;;30.63;18.85;;;1.00;99.90;;;;;;5034293;28;20052;-68
2020/12/26 02:11:32;;;;;;;32.78;19.02;;;0.70;99.90;;;;;;5034138;28;20036;-68
2020/12/26 02:13:58;;;;;;;30.42;17.92;;;0.80;99.90;;;;;;5033469;28;20032;-68
2020/12/26 02:16:24;;;;;;;31.42;18.77;;;0.80;99.90;;;;;;5034163;28;20029;-68
2020/12/26 02:18:50;;;;;;;31.05;18.15;;;0.80;99.90;;;;;;5035237;28;20030;-68
2020/12/26 02:21:16;;;;;;;30.67;18.90;;;0.90;99.90;;;;;;5036537;28;20028;-69
2020/12/26 02:23:46;;;;;;;31.50;18.08;;;0.90;99.90;;;;;;5035229;28;20021;-69
2020/12/26 02:26:13;;;;;;;28.45;16.98;;;1.00;99.90;;;;;;5035446;28;20036;-68
2020/12/26 02:28:39;;;;;;;29.70;17.17;;;1.00;99.90;;;;;;5035783;28;20116;-68
2020/12/26 02:31:05;;;;;;;24.42;16.25;;;1.10;99.90;;;;;;5035052;28;20530;-69
2020/12/26 02:33:34;;;;;;;29.15;16.95;;;1.00;99.90;;;;;;5034721;28;20124;-68
2020/12/26 02:36:03;;;;;;;28.45;17.00;;;1.00;99.90;;;;;;5034053;28;20025;-69
2020/12/26 02:38:29;;;;;;;28.90;16.33;;;1.10;99.90;;;;;;5035171;28;20116;-68
2020/12/26 02:40:55;;;;;;;27.85;16.48;;;1.10;99.90;;;;;;5034854;28;20022;-69
2020/12/26 02:43:25;;;;;;;25.23;16.42;;;1.00;99.90;;;;;;5033556;28;20345;-68
2020/12/26 02:45:55;;;;;;;30.38;16.77;;;1.00;99.90;;;;;;5034153;28;20026;-69
2020/12/26 02:48:24;;;;;;;25.70;16.77;;;1.00;99.90;;;;;;5034240;28;20025;-68
2020/12/26 02:50:49;;;;;;;28.10;17.02;;;0.90;99.90;;;;;;5034302;28;20038;-68
2020/12/26 02:53:15;;;;;;;41.13;18.85;;;0.90;99.90;;;;;;5033777;28;20026;-68
2020/12/26 02:55:41;;;;;;;31.27;17.23;;;0.90;99.90;;;;;;5034468;28;20460;-69
2020/12/26 02:58:07;;;;;;;25.25;16.95;;;0.70;99.90;;;;;;5035774;28;20079;-69
2020/12/26 03:00:33;;;;;;;29.23;15.77;;;0.60;99.90;;;;;;5037062;28;20029;-68
2020/12/26 03:02:59;;;;;;;26.25;16.33;;;0.50;99.90;;;;;;5038062;28;20025;-68
2020/12/26 03:05:25;;;;;;;32.13;17.67;;;0.40;99.90;;;;;;5058139;23;20601;-70
2020/12/26 03:07:51;;;;;;;35.95;19.35;;;0.40;99.90;;;;;;5087597;28;20039;-71
2020/12/26 03:10:17;;;;;;;35.30;18.50;;;0.40;99.90;;;;;;5087623;28;20028;-70
2020/12/26 03:12:43;;;;;;;30.00;19.17;;;0.40;99.90;;;;;;5072491;28;20056;-69
2020/12/26 03:15:09;;;;;;;35.05;20.65;;;0.40;99.90;;;;;;5071437;28;20505;-70
2020/12/26 03:17:35;;;;;;;31.70;19.17;;;0.40;99.90;;;;;;5073008;28;20021;-69
2020/12/26 03:20:01;;;;;;;37.13;20.55;;;0.40;99.90;;;;;;5072685;28;20440;-69
2020/12/26 03:22:31;;;;;;;34.97;19.40;;;0.70;99.90;;;;;;5072421;28;20032;-70
2020/12/26 03:24:56;;;;;;;38.30;19.55;;;0.70;99.90;;;;;;5062658;28;20025;-70
2020/12/26 03:27:22;;;;;;;35.25;18.75;;;0.80;99.90;;;;;;5054880;28;20386;-70
2020/12/26 03:29:49;;;;;;;36.78;19.58;;;0.80;99.90;;;;;;5052851;28;20629;-71
2020/12/26 03:32:14;;;;;;;30.10;17.77;;;0.90;99.90;;;;;;5053074;28;20028;-71
2020/12/26 03:34:40;;;;;;;29.13;17.45;;;1.00;99.90;;;;;;5070302;28;20032;-71
2020/12/26 03:37:06;;;;;;;42.58;18.55;;;1.00;99.90;;;;;;5073531;28;20028;-70
2020/12/26 03:39:35;;;;;;;37.40;18.42;;;1.00;99.90;;;;;;5073694;28;20025;-71
2020/12/26 03:42:09;;;;;;;33.78;18.10;;;1.00;99.90;;;;;;5072718;28;20017;-71
2020/12/26 03:44:36;;;;;;;33.78;17.80;;;1.10;99.90;;;;;;5072370;28;20029;-71
2020/12/26 03:47:04;;;;;;;38.83;20.58;;;1.10;99.90;;;;;;5072126;28;20052;-71
2020/12/26 03:49:30;;;;;;;34.97;18.42;;;1.10;99.90;;;;;;5072369;28;20032;-70
2020/12/26 03:51:56;;;;;;;31.55;18.40;;;1.10;99.90;;;;;;5071931;28;20032;-69
2020/12/26 03:54:22;;;;;;;32.92;17.67;;;1.20;99.90;;;;;;5071852;28;20497;-69
2020/12/26 03:56:47;;;;;;;35.03;17.45;;;1.20;99.90;;;;;;5071778;28;20024;-70
2020/12/26 03:59:13;;;;;;;30.88;16.02;;;1.20;99.90;;;;;;5071816;28;20024;-70
2020/12/26 04:01:39;;;;;;;28.88;17.23;;;1.20;99.90;;;;;;5071860;28;20391;-69
2020/12/26 04:04:05;;;;;;;27.77;16.77;;;1.20;99.90;;;;;;5058343;28;20021;-71
2020/12/26 04:06:31;;;;;;;23.63;15.23;;;1.10;99.90;;;;;;5051163;28;20036;-69
2020/12/26 04:08:57;;;;;;;29.08;15.98;;;1.00;99.90;;;;;;5061806;28;20025;-70
2020/12/26 04:11:23;;;;;;;26.05;16.40;;;1.00;99.90;;;;;;5064158;28;20029;-71
2020/12/26 04:13:49;;;;;;;28.45;15.65;;;0.90;99.90;;;;;;5065235;28;20483;-70
2020/12/26 04:16:15;;;;;;;26.75;16.25;;;0.90;99.90;;;;;;5067082;28;20044;-71
2020/12/26 04:18:41;;;;;;;29.13;16.63;;;0.90;99.90;;;;;;5065284;28;20071;-71
2020/12/26 04:21:07;;;;;;;31.63;16.23;;;0.80;99.90;;;;;;5051666;28;20489;-72
2020/12/26 04:23:33;;;;;;;26.98;16.17;;;0.70;99.90;;;;;;5050313;28;20075;-70
2020/12/26 04:25:59;;;;;;;28.48;17.10;;;0.70;99.90;;;;;;5051455;28;20036;-70
2020/12/26 04:28:25;;;;;;;29.70;17.33;;;0.70;99.90;;;;;;5051632;28;20033;-71
2020/12/26 04:30:51;;;;;;;27.65;16.10;;;0.70;99.90;;;;;;5050630;28;20040;-73
2020/12/26 04:33:17;;;;;;;33.20;17.67;;;0.70;99.90;;;;;;5052282;28;20517;-71
2020/12/26 04:35:42;;;;;;;30.08;16.70;;;0.70;99.90;;;;;;5055264;28;20029;-70
2020/12/26 04:38:08;;;;;;;26.88;15.43;;;0.60;99.90;;;;;;5054222;28;20033;-71
2020/12/26 04:40:34;;;;;;;26.98;16.35;;;0.60;99.90;;;;;;5055510;28;20025;-71
2020/12/26 04:43:01;;;;;;;29.58;17.30;;;0.70;99.90;;;;;;5055146;28;20021;-69
2020/12/26 04:45:27;;;;;;;25.73;15.88;;;0.70;99.90;;;;;;5054149;28;20028;-71
2020/12/26 04:48:01;;;;;;;28.33;16.10;;;0.70;99.90;;;;;;5055450;28;20028;-71
2020/12/26 04:50:29;;;;;;;30.73;16.90;;;0.70;99.90;;;;;;5055346;28;20079;-71
2020/12/26 04:53:03;;;;;;;28.13;16.85;;;0.70;99.90;;;;;;5054823;28;20033;-71
2020/12/26 04:55:36;;;;;;;25.23;15.50;;;0.70;99.90;;;;;;5055275;28;20056;-70
2020/12/26 04:58:06;;;;;;;27.60;16.50;;;0.70;99.90;;;;;;5055165;28;20104;-72
2020/12/26 05:00:34;;;;;;;34.22;17.23;;;0.70;99.90;;;;;;5066631;28;20564;-72
2020/12/26 05:03:13;;;;;;;29.05;16.40;;;0.80;99.90;;;;;;5074674;28;20021;-71
2020/12/26 05:05:43;;;;;;;29.52;16.50;;;0.70;99.90;;;;;;5074775;28;20039;-70
2020/12/26 05:08:11;;;;;;;28.25;16.42;;;0.70;99.90;;;;;;5075180;28;20017;-70
2020/12/26 05:10:37;;;;;;;26.95;16.23;;;0.80;99.90;;;;;;5074929;28;20083;-70
2020/12/26 05:13:05;;;;;;;28.38;16.17;;;0.80;99.90;;;;;;5074596;28;20460;-70
2020/12/26 05:15:31;;;;;;;23.75;15.48;;;0.80;99.90;;;;;;5074317;28;20032;-70
2020/12/26 05:17:57;;;;;;;23.08;15.57;;;0.80;99.90;;;;;;5074654;28;20035;-70
2020/12/26 05:20:26;;;;;;;31.90;16.30;;;0.80;99.90;;;;;;5074558;28;20524;-70
2020/12/26 05:23:15;;;;;;;33.42;16.45;;;0.80;99.90;;;;;;5074185;28;20103;-72
2020/12/26 05:25:43;;;;;;;29.40;16.80;;;0.80;99.90;;;;;;5074421;28;20035;-70
2020/12/26 05:28:15;;;;;;;27.88;16.15;;;0.80;99.90;;;;;;5073355;28;20051;-70
2020/12/26 05:30:42;;;;;;;25.33;16.40;;;0.80;99.90;;;;;;5073230;28;20039;-70
2020/12/26 05:33:09;;;;;;;31.58;16.35;;;0.80;99.90;;;;;;5067235;28;20478;-69
2020/12/26 05:35:46;;;;;;;28.85;15.45;;;0.70;99.90;;;;;;5053635;28;20090;-71
2020/12/26 05:38:20;;;;;;;27.95;16.83;;;0.80;99.90;;;;;;5054317;28;20112;-71
2020/12/26 05:40:49;;;;;;;24.30;15.40;;;0.80;99.90;;;;;;5054367;28;20024;-71
2020/12/26 05:43:17;;;;;;;22.92;15.80;;;0.90;99.90;;;;;;5053730;28;20059;-70
2020/12/26 05:45:43;;;;;;;30.55;15.48;;;0.80;99.90;;;;;;5053811;28;20032;-72
2020/12/26 05:48:14;;;;;;;23.42;15.45;;;0.80;99.90;;;;;;5054213;28;20387;-71
2020/12/26 05:50:40;;;;;;;25.77;15.27;;;0.70;99.90;;;;;;5053916;28;20032;-71
2020/12/26 05:53:08;;;;;;;27.58;17.30;;;0.60;99.90;;;;;;5053423;28;20098;-70
2020/12/26 05:55:45;;;;;;;25.80;16.65;;;0.50;99.90;;;;;;5053824;28;20025;-70
2020/12/26 05:58:12;;;;;;;24.75;16.08;;;0.50;99.90;;;;;;5053880;28;20156;-71
2020/12/26 06:00:39;;;;;;;28.60;16.92;;;0.40;99.90;;;;;;5053928;28;20025;-70
2020/12/26 06:03:25;;;;;;;27.02;17.23;;;0.50;99.90;;;;;;5058493;28;20021;-71
2020/12/26 06:05:55;;;;;;;26.80;16.08;;;0.40;99.90;;;;;;5073202;28;20052;-71
2020/12/26 06:08:22;;;;;;;29.25;17.83;;;0.40;99.90;;;;;;5074013;28;20028;-71
2020/12/26 06:10:53;;;;;;;33.28;17.63;;;0.40;99.90;;;;;;5073792;28;20027;-70
2020/12/26 06:13:21;;;;;;;33.55;18.83;;;0.30;99.90;;;;;;5072988;28;20103;-71
2020/12/26 06:16:01;;;;;;;27.08;16.58;;;0.30;99.90;;;;;;5073580;28;20471;-70
2020/12/26 06:18:30;;;;;;;33.00;18.10;;;0.20;99.90;;;;;;5073641;28;20063;-71
2020/12/26 06:20:56;;;;;;;30.17;19.08;;;0.20;99.90;;;;;;5073468;28;20484;-71
2020/12/26 06:23:23;;;;;;;28.70;18.27;;;0.20;99.90;;;;;;5072715;28;20029;-69
2020/12/26 06:25:51;;;;;;;31.40;18.02;;;0.20;99.90;;;;;;5073385;28;20031;-71
2020/12/26 06:28:25;;;;;;;29.98;17.60;;;0.10;99.90;;;;;;5073532;28;20025;-71
2020/12/26 06:30:52;;;;;;;31.02;16.85;;;0.10;99.90;;;;;;5073599;28;20020;-71
2020/12/26 06:33:21;;;;;;;30.98;17.63;;;0.00;99.90;;;;;;5072786;28;20102;-70
2020/12/26 06:35:47;;;;;;;32.42;17.65;;;-0.10;99.90;;;;;;5072880;28;20028;-72
2020/12/26 06:38:16;;;;;;;33.85;19.40;;;-0.10;99.90;;;;;;5073324;28;20069;-70
2020/12/26 06:40:52;;;;;;;34.55;19.20;;;-0.10;99.90;;;;;;5073476;28;20031;-68
2020/12/26 06:43:44;;;;;;;34.20;19.58;;;-0.10;99.90;;;;;;5072790;28;20017;-69
2020/12/26 06:46:29;;;;;;;33.70;19.00;;;0.00;99.90;;;;;;5073402;28;20017;-71
2020/12/26 06:48:57;;;;;;;31.80;19.60;;;-0.10;99.90;;;;;;5073193;28;20035;-70
2020/12/26 06:51:36;;;;;;;36.70;19.85;;;0.00;99.90;;;;;;5073317;28;20050;-70
2020/12/26 06:54:04;;;;;;;37.97;19.35;;;0.00;99.90;;;;;;5072237;28;20385;-73
2020/12/26 06:56:35;;;;;;;38.13;19.45;;;0.00;99.90;;;;;;5072106;28;20028;-73
2020/12/26 06:59:02;;;;;;;40.03;20.38;;;0.00;99.90;;;;;;5073196;28;20107;-71
2020/12/26 07:01:28;;;;;;;33.97;18.98;;;0.00;99.90;;;;;;5073152;28;20020;-72
2020/12/26 07:04:13;;;;;;;37.58;20.85;;;0.10;99.90;;;;;;5072369;28;20020;-72
2020/12/26 07:06:48;;;;;;;37.50;20.25;;;0.00;99.90;;;;;;5067210;28;20033;-72
2020/12/26 07:09:17;;;;;;;36.28;21.10;;;0.10;99.90;;;;;;5038710;28;20104;-72
2020/12/26 07:11:48;;;;;;;36.83;21.35;;;0.00;99.90;;;;;;5042519;28;20025;-72
2020/12/26 07:14:49;;;;;;;43.53;23.30;;;0.20;99.90;;;;;;5039344;28;20017;-72
2020/12/26 07:17:15;;;;;;;44.13;22.10;;;0.20;99.90;;;;;;5041707;28;20028;-71
2020/12/26 07:19:43;;;;;;;33.95;19.85;;;0.30;99.90;;;;;;5040814;28;20022;-71
2020/12/26 07:22:29;;;;;;;31.42;19.40;;;0.30;99.90;;;;;;5038957;28;20496;-71
2020/12/26 07:25:08;;;;;;;36.97;20.35;;;0.30;99.90;;;;;;5041043;28;20097;-72
2020/12/26 07:27:39;;;;;;;36.80;21.33;;;0.40;99.90;;;;;;5041207;28;20071;-70
2020/12/26 07:30:09;;;;;;;34.75;20.20;;;0.60;99.90;;;;;;5040535;28;20028;-70
2020/12/26 07:32:40;;;;;;;36.08;19.50;;;0.50;99.90;;;;;;5043746;28;20378;-73
2020/12/26 07:35:09;;;;;;;29.70;16.23;;;0.50;99.90;;;;;;5044884;28;20013;-72
2020/12/26 07:37:34;;;;;;;37.03;20.60;;;0.50;99.90;;;;;;5042863;28;20025;-72
2020/12/26 07:40:00;;;;;;;33.08;19.35;;;0.60;99.90;;;;;;5042161;28;20028;-71
2020/12/26 07:42:26;;;;;;;34.25;19.05;;;0.60;99.90;;;;;;5039673;28;20026;-70
2020/12/26 07:44:52;;;;;;;36.97;19.67;;;0.70;99.90;;;;;;5029928;28;20017;-72
2020/12/26 07:47:18;;;;;;;32.00;17.65;;;0.80;99.90;;;;;;5051188;28;20021;-72
2020/12/26 07:49:57;;;;;;;34.60;18.25;;;0.90;99.90;;;;;;5054773;28;20527;-69
2020/12/26 07:52:24;;;;;;;27.10;17.23;;;1.00;99.90;;;;;;5052942;28;20037;-69
2020/12/26 07:55:00;;;;;;;30.02;16.67;;;1.10;99.90;;;;;;5039113;28;20041;-70
2020/12/26 07:57:27;;;;;;;32.45;15.68;;;1.10;99.90;;;;;;5038237;28;20105;-70
2020/12/26 07:59:53;;;;;;;27.80;17.15;;;1.20;99.90;;;;;;5031769;28;20566;-72
2020/12/26 08:02:19;;;;;;;23.52;15.30;;;1.20;99.90;;;;;;5037224;28;20025;-71
2020/12/26 08:04:46;;;;;;;25.20;15.15;;;1.40;99.90;;;;;;5043518;28;20029;-69
2020/12/26 08:07:17;;;;;;;24.00;14.63;;;1.70;99.90;;;;;;5042100;28;20037;-72
2020/12/26 08:09:53;;;;;;;25.48;15.18;;;2.20;99.90;;;;;;5054571;28;20021;-71
2020/12/26 08:12:20;;;;;;;22.67;13.55;;;2.50;99.90;;;;;;5052649;28;20025;-72
2020/12/26 08:15:00;;;;;;;21.20;14.18;;;2.70;99.90;;;;;;5051630;28;20029;-72
2020/12/26 08:17:28;;;;;;;21.63;13.32;;;2.80;99.90;;;;;;5043569;28;20082;-73
2020/12/26 08:19:58;;;;;;;19.45;13.13;;;2.90;99.90;;;;;;5052579;28;20025;-72
2020/12/26 08:22:24;;;;;;;25.10;14.80;;;3.00;99.90;;;;;;5051998;28;20092;-71
2020/12/26 08:25:01;;;;;;;26.23;15.60;;;3.40;99.90;;;;;;5051132;28;20017;-71
2020/12/26 08:27:29;;;;;;;21.00;12.48;;;3.60;99.90;;;;;;5051398;28;20036;-71
2020/12/26 08:29:56;;;;;;;18.60;11.88;;;4.10;99.90;;;;;;5052962;28;20033;-72
2020/12/26 08:32:26;;;;;;;17.48;12.05;;;4.80;99.90;;;;;;5052284;28;20501;-71
2020/12/26 08:35:00;;;;;;;15.88;10.35;;;5.50;99.90;;;;;;5042423;28;20080;-72
2020/12/26 08:37:38;;;;;;;18.08;11.20;;;5.80;99.90;;;;;;5051307;28;20025;-71
2020/12/26 08:40:05;;;;;;;51.72;38.08;;;6.20;99.90;;;;;;5051579;28;20091;-70
2020/12/26 08:42:32;;;;;;;20.52;14.40;;;6.10;99.90;;;;;;5051827;28;20032;-67
2020/12/26 08:44:57;;;;;;;16.20;10.52;;;6.00;99.90;;;;;;5050857;28;20035;-69
2020/12/26 08:47:31;;;;;;;12.73;10.57;;;6.20;99.90;;;;;;5051082;28;20104;-68
2020/12/26 08:49:57;;;;;;;16.83;9.80;;;6.60;99.90;;;;;;5050841;28;20487;-67
2020/12/26 08:52:26;;;;;;;14.63;9.93;;;6.80;99.90;;;;;;5051131;28;20033;-68
2020/12/26 08:55:05;;;;;;;16.17;9.63;;;6.90;99.90;;;;;;5040896;28;20030;-69
2020/12/26 08:57:31;;;;;;;14.55;9.70;;;6.30;99.90;;;;;;5031129;28;20030;-69
2020/12/26 09:00:21;;;;;;;16.80;9.25;;;6.00;99.90;;;;;;5032895;28;20033;-68
2020/12/26 09:02:52;;;;;;;16.20;8.55;;;6.20;99.90;;;;;;5033110;28;20056;-71
2020/12/26 09:05:29;;;;;;;13.93;8.60;;;6.10;99.90;;;;;;5061421;28;20021;-73
2020/12/26 09:08:05;;;;;;;11.50;7.95;;;6.70;99.90;;;;;;5050869;28;20028;-71
2020/12/26 09:10:32;;;;;;;13.05;7.90;;;6.90;99.90;;;;;;5046915;28;20026;-72
2020/12/26 09:13:06;;;;;;;10.10;6.63;;;6.70;99.90;;;;;;5029314;28;20108;-71
2020/12/26 09:15:51;;;;;;;11.35;7.22;;;6.60;99.90;;;;;;5030944;28;20053;-72
2020/12/26 09:18:18;;;;;;;11.80;6.50;;;7.00;99.90;;;;;;5030424;28;20025;-75
2020/12/26 09:21:03;;;;;;;9.57;6.57;;;7.40;99.90;;;;;;5034516;28;20677;-73
2020/12/26 09:23:37;;;;;;;10.40;6.72;;;8.20;99.90;;;;;;5033999;28;20079;-73
2020/12/26 09:26:17;;;;;;;10.20;6.80;;;8.50;99.90;;;;;;5034804;28;20052;-71
2020/12/26 09:28:48;;;;;;;9.30;6.43;;;8.40;99.90;;;;;;5034240;28;20021;-73
2020/12/26 09:31:16;;;;;;;9.37;6.37;;;7.70;99.90;;;;;;5034418;28;20052;-72
2020/12/26 09:33:42;;;;;;;7.53;5.47;;;7.90;99.90;;;;;;5051983;28;20271;-72
2020/12/26 09:36:13;;;;;;;9.05;5.88;;;7.30;99.90;;;;;;5073865;28;20505;-73
2020/12/26 09:38:39;;;;;;;9.18;6.03;;;7.30;99.90;;;;;;5073964;28;20031;-73
2020/12/26 09:41:12;;;;;;;9.80;6.03;;;8.00;99.90;;;;;;5074234;28;20363;-73
2020/12/26 09:43:37;;;;;;;6.88;6.00;;;8.60;99.90;;;;;;5073578;28;20035;-74
2020/12/26 09:46:03;;;;;;;9.65;6.25;;;10.00;99.90;;;;;;5073835;28;20028;-73
2020/12/26 09:48:29;;;;;;;10.30;6.25;;;9.90;99.90;;;;;;5073479;28;20024;-72
2020/12/26 09:50:55;;;;;;;7.38;5.68;;;10.30;99.90;;;;;;5072619;28;20505;-71
2020/12/26 09:53:20;;;;;;;7.50;6.18;;;10.70;99.90;;;;;;5073272;28;20043;-71
2020/12/26 09:55:46;;;;;;;9.35;5.13;;;11.00;99.90;;;;;;5072413;28;20024;-73
2020/12/26 09:58:12;;;;;;;6.68;5.07;;;10.70;98.70;;;;;;5073600;28;20032;-75
2020/12/26 10:00:37;;;;;;;7.93;5.97;;;10.70;99.70;;;;;;5074106;28;20012;-71
2020/12/26 10:03:03;;;;;;;7.95;5.80;;;11.00;98.20;;;;;;5073341;28;20071;-71
2020/12/26 10:05:28;;;;;;;7.20;5.82;;;11.10;98.00;;;;;;5073804;28;20024;-72
2020/12/26 10:07:54;;;;;;;7.20;5.57;;;10.40;98.60;;;;;;5079461;22;20067;-70
2020/12/26 10:10:20;;;;;;;10.88;5.80;;;10.40;99.00;;;;;;5042983;28;20053;-69
2020/12/26 10:12:45;;;;;;;8.25;5.40;;;9.60;99.70;;;;;;5033140;28;20053;-67
2020/12/26 10:15:11;;;;;;;5.53;4.50;;;8.90;99.90;;;;;;5032665;28;20025;-67
2020/12/26 10:17:37;;;;;;;8.75;5.03;;;8.10;99.90;;;;;;5045645;28;20017;-68
2020/12/26 10:20:02;;;;;;;6.82;5.22;;;7.80;99.90;;;;;;5044572;28;20127;-68
2020/12/26 10:22:28;;;;;;;7.55;5.25;;;7.50;99.90;;;;;;5037280;28;20022;-68
2020/12/26 10:24:54;;;;;;;11.10;6.43;;;5.90;99.90;;;;;;5031844;28;20537;-67
2020/12/26 10:27:19;;;;;;;7.65;5.72;;;5.70;99.90;;;;;;5032878;28;20045;-69
2020/12/26 10:29:48;;;;;;;7.00;5.47;;;5.60;99.90;;;;;;5032972;28;20539;-67
2020/12/26 10:32:13;;;;;;;9.15;5.85;;;5.40;99.90;;;;;;5031085;28;20049;-69
2020/12/26 10:34:39;;;;;;;8.52;5.43;;;5.80;99.90;;;;;;5031754;28;20025;-66
2020/12/26 10:37:05;;;;;;;7.03;5.70;;;6.00;99.90;;;;;;5032620;28;20022;-67
2020/12/26 10:39:30;;;;;;;6.85;5.53;;;5.80;99.90;;;;;;5032152;28;20052;-66
2020/12/26 10:41:56;;;;;;;9.07;5.85;;;5.30;99.90;;;;;;5032734;28;20514;-67
2020/12/26 10:44:21;;;;;;;8.93;5.85;;;5.10;99.90;;;;;;5032752;28;20029;-65
2020/12/26 10:46:47;;;;;;;12.57;6.07;;;5.10;99.90;;;;;;5029891;28;20025;-65
2020/12/26 10:49:13;;;;;;;8.98;6.18;;;5.50;99.90;;;;;;5013013;28;20026;-64
2020/12/26 10:51:38;;;;;;;6.30;5.63;;;5.50;99.90;;;;;;5021407;28;20495;-66
2020/12/26 10:54:04;;;;;;;7.07;5.32;;;6.50;99.90;;;;;;5031975;28;20479;-65
2020/12/26 10:56:30;;;;;;;8.60;5.75;;;8.20;99.90;;;;;;5032101;28;20025;-66
2020/12/26 10:58:55;;;;;;;8.70;5.60;;;10.70;99.90;;;;;;5032438;28;20144;-66
2020/12/26 11:01:32;;;;;;;5.75;5.00;;;12.40;97.10;;;;;;5032604;28;20092;-66
2020/12/26 11:03:58;;;;;;;7.72;5.85;;;13.90;93.30;;;;;;5031940;28;20041;-65
2020/12/26 11:06:24;;;;;;;6.97;5.47;;;13.30;92.00;;;;;;5032122;28;20442;-64
2020/12/26 11:08:50;;;;;;;7.07;5.43;;;13.30;90.90;;;;;;5032212;28;20033;-65
2020/12/26 11:11:16;;;;;;;6.53;4.28;;;15.00;88.50;;;;;;5032142;28;20033;-64
2020/12/26 11:13:41;;;;;;;7.57;4.40;;;16.00;80.10;;;;;;5031564;28;20088;-65
2020/12/26 11:16:12;;;;;;;5.47;4.60;;;17.20;73.80;;;;;;5032390;28;20025;-66
2020/12/26 11:18:37;;;;;;;6.15;4.50;;;17.60;70.90;;;;;;5032025;28;20392;-65
2020/12/26 11:21:03;;;;;;;6.72;4.32;;;17.50;68.00;;;;;;5031906;28;20041;-65
2020/12/26 11:23:29;;;;;;;9.77;4.05;;;16.70;66.50;;;;;;5031884;28;20032;-76
2020/12/26 11:25:57;;;;;;;7.45;4.10;;;16.50;71.50;;;;;;5033821;28;20028;-77
2020/12/26 11:28:23;;;;;;;6.63;4.20;;;16.80;74.10;;;;;;5028664;28;20033;-77
2020/12/26 11:30:49;;;;;;;5.57;3.60;;;16.10;75.40;;;;;;5014053;28;20030;-77
2020/12/26 11:33:14;;;;;;;5.63;3.80;;;16.90;67.70;;;;;;5012377;28;20022;-74
2020/12/26 11:35:40;;;;;;;5.32;3.83;;;16.60;66.30;;;;;;5012365;28;20060;-74
2020/12/26 11:38:06;;;;;;;5.05;3.45;;;16.30;74.20;;;;;;5013275;28;20468;-75
2020/12/26 11:40:31;;;;;;;3.85;3.53;;;17.20;64.80;;;;;;5021423;28;20022;-65
2020/12/26 11:42:57;;;;;;;4.25;3.17;;;16.40;62.70;;;;;;5011076;28;20030;-65
2020/12/26 11:45:23;;;;;;;5.65;3.60;;;13.90;69.20;;;;;;5011850;28;20041;-65
2020/12/26 11:47:48;;;;;;;5.55;4.13;;;14.30;72.00;;;;;;5011812;28;20499;-64
2020/12/26 11:50:14;;;;;;;4.03;3.60;;;15.90;66.00;;;;;;5011663;28;20018;-65
2020/12/26 11:52:39;;;;;;;5.13;3.47;;;14.80;66.50;;;;;;5011410;28;20018;-63
2020/12/26 11:55:05;;;;;;;5.53;3.60;;;14.20;69.60;;;;;;5011566;28;20025;-65
2020/12/26 11:57:31;;;;;;;7.70;4.00;;;13.90;71.20;;;;;;5011771;28;20037;-69
2020/12/26 11:59:56;;;;;;;6.70;3.60;;;13.20;72.10;;;;;;5011525;28;20025;-69
2020/12/26 12:02:22;;;;;;;5.22;3.90;;;12.10;75.00;;;;;;5021254;28;20024;-70
2020/12/26 12:04:47;;;;;;;7.15;4.43;;;11.30;78.10;;;;;;5030119;28;20029;-69
2020/12/26 12:07:13;;;;;;;5.10;4.10;;;10.00;80.90;;;;;;5031424;28;20032;-67
2020/12/26 12:09:39;;;;;;;5.25;4.15;;;9.00;83.80;;;;;;5031169;28;20399;-68
2020/12/26 12:12:05;;;;;;;10.38;4.63;;;8.80;86.30;;;;;;5031265;28;20030;-71
2020/12/26 12:14:30;;;;;;;7.95;4.43;;;9.20;86.60;;;;;;5030707;28;20057;-68
2020/12/26 12:16:56;;;;;;;8.63;4.80;;;9.50;84.10;;;;;;5029903;28;20510;-68
2020/12/26 12:19:22;;;;;;;6.38;4.72;;;9.10;86.10;;;;;;5031185;28;20029;-70
2020/12/26 12:21:47;;;;;;;9.13;4.97;;;9.10;88.60;;;;;;5031433;28;20079;-69
2020/12/26 12:24:13;;;;;;;9.63;5.30;;;9.70;88.50;;;;;;5030411;28;20029;-69
2020/12/26 12:26:39;;;;;;;7.60;4.82;;;10.20;87.20;;;;;;5030909;28;20102;-69
2020/12/26 12:29:04;;;;;;;5.32;4.53;;;10.60;85.60;;;;;;5030187;28;20029;-68
2020/12/26 12:31:38;;;;;;;6.57;4.25;;;10.30;85.60;;;;;;5031107;28;20106;-68
2020/12/26 12:34:04;;;;;;;9.30;4.60;;;9.60;84.90;;;;;;5030393;28;20484;-68
2020/12/26 12:36:29;;;;;;;7.15;4.57;;;9.90;86.80;;;;;;5030999;28;20057;-68
2020/12/26 12:38:55;;;;;;;9.55;4.45;;;9.80;86.30;;;;;;5030885;28;20021;-68
2020/12/26 12:41:21;;;;;;;6.00;4.30;;;9.80;86.30;;;;;;5031020;28;20032;-68
2020/12/26 12:43:46;;;;;;;6.22;4.72;;;9.20;88.10;;;;;;5029624;28;20021;-68
2020/12/26 12:46:12;;;;;;;8.60;5.07;;;9.50;88.60;;;;;;5030746;28;20044;-68